Time;durP1;ratioP1;P1;durP2;ratioP2;P2;SDS_P1;SDS_P2;PMS_P1;PMS_P2;Temp;Humidity;BMP_temperature;BMP_pressure;BME280_temperature;BME280_humidity;BME280_pressure;Samples;Min_cycle;Max_cycle;Signal;HPM_P1;HPM_P2
2023/10/26 00:00:31;;;;;;;206.88;49.28;;;9.30;99.90;;;;;;4942017;28;20058;-75
2023/10/26 00:02:57;;;;;;;201.45;49.67;;;9.30;99.90;;;;;;4963967;28;20066;-77
2023/10/26 00:05:26;;;;;;;177.00;47.55;;;9.30;99.90;;;;;;4967455;28;20072;-75
2023/10/26 00:07:52;;;;;;;268.17;54.47;;;9.30;99.90;;;;;;4950098;28;20062;-78
2023/10/26 00:10:18;;;;;;;315.23;58.40;;;9.50;99.90;;;;;;4955931;28;20072;-73
2023/10/26 00:12:47;;;;;;;188.13;48.58;;;9.30;99.90;;;;;;4973090;28;20083;-73
2023/10/26 00:15:12;;;;;;;202.25;48.28;;;9.20;99.90;;;;;;4964789;28;20058;-74
2023/10/26 00:17:39;;;;;;;166.38;47.60;;;9.30;99.90;;;;;;4948743;28;20051;-76
2023/10/26 00:20:06;;;;;;;238.57;54.40;;;9.20;99.90;;;;;;4944029;28;20086;-80
2023/10/26 00:22:32;;;;;;;258.92;57.40;;;9.30;99.90;;;;;;4953018;28;20515;-76
2023/10/26 00:24:58;;;;;;;241.63;57.40;;;10.00;99.90;;;;;;4950390;28;20050;-75
2023/10/26 00:27:24;;;;;;;211.05;53.22;;;9.30;99.90;;;;;;4957790;28;20329;-77
2023/10/26 00:29:50;;;;;;;273.77;57.42;;;9.60;99.90;;;;;;4959048;28;20054;-76
2023/10/26 00:32:15;;;;;;;302.10;62.70;;;9.90;99.90;;;;;;4958443;28;20133;-78
2023/10/26 00:34:42;;;;;;;435.90;71.18;;;9.30;99.90;;;;;;4961094;28;20566;-78
2023/10/26 00:37:07;;;;;;;322.20;65.50;;;9.60;99.90;;;;;;4957380;28;20046;-80
2023/10/26 00:39:34;;;;;;;303.10;67.32;;;9.50;99.90;;;;;;4944248;28;20065;-75
2023/10/26 00:42:00;;;;;;;227.88;60.30;;;9.30;99.90;;;;;;4950102;28;20722;-74
2023/10/26 00:44:25;;;;;;;442.42;74.50;;;10.80;99.90;;;;;;4930427;28;20054;-76
2023/10/26 00:46:54;;;;;;;283.85;66.28;;;9.60;99.90;;;;;;4953333;28;20136;-73
2023/10/26 00:49:20;;;;;;;287.60;68.28;;;9.90;99.90;;;;;;4964531;28;20066;-78
2023/10/26 00:51:59;;;;;;;470.60;82.50;;;9.80;99.90;;;;;;4954474;28;20527;-76
2023/10/26 00:54:26;;;;;;;350.77;71.88;;;9.20;99.90;;;;;;4959928;28;20054;-76
2023/10/26 00:56:54;;;;;;;332.45;70.68;;;9.10;99.90;;;;;;4966990;28;20061;-77
2023/10/26 00:59:20;;;;;;;232.98;63.92;;;9.10;99.90;;;;;;4969862;28;20046;-76
2023/10/26 01:01:48;;;;;;;456.52;77.60;;;9.30;99.90;;;;;;4940532;28;20114;-75
2023/10/26 01:04:14;;;;;;;512.75;86.22;;;10.80;99.90;;;;;;4928895;29;20062;-79
2023/10/26 01:06:44;;;;;;;305.13;67.80;;;9.40;99.90;;;;;;4935656;29;20161;-74
2023/10/26 01:09:10;;;;;;;419.48;76.80;;;9.40;99.90;;;;;;4957281;28;20090;-77
2023/10/26 01:11:37;;;;;;;473.55;81.18;;;9.00;99.90;;;;;;4943067;28;20137;-73
2023/10/26 01:14:04;;;;;;;440.73;78.32;;;9.30;99.90;;;;;;4942786;28;20050;-74
2023/10/26 01:16:30;;;;;;;338.33;71.82;;;9.00;99.90;;;;;;4944381;28;20050;-73
2023/10/26 01:19:00;;;;;;;329.85;69.03;;;9.00;99.90;;;;;;4936859;29;20054;-78
2023/10/26 01:21:28;;;;;;;476.58;80.38;;;9.00;99.90;;;;;;4934769;29;20059;-76
2023/10/26 01:23:54;;;;;;;319.50;72.13;;;9.00;99.90;;;;;;4937792;29;20174;-75
2023/10/26 01:26:19;;;;;;;367.77;73.05;;;9.90;99.90;;;;;;4942975;28;20507;-77
2023/10/26 01:28:45;;;;;;;518.60;80.25;;;9.00;99.90;;;;;;4944080;28;20055;-77
2023/10/26 01:31:18;;;;;;;240.85;65.65;;;9.10;99.90;;;;;;4943604;28;20109;-75
2023/10/26 01:33:47;;;;;;;433.35;76.22;;;9.10;99.90;;;;;;4934658;28;20130;-74
2023/10/26 01:36:13;;;;;;;388.58;75.68;;;9.10;99.90;;;;;;4924397;29;20043;-77
2023/10/26 01:38:38;;;;;;;462.38;77.85;;;9.10;99.90;;;;;;4933105;29;20067;-76
2023/10/26 01:41:07;;;;;;;431.30;78.28;;;9.00;99.90;;;;;;4934496;29;20524;-77
2023/10/26 01:43:32;;;;;;;343.10;71.53;;;8.90;99.90;;;;;;4931004;29;20043;-79
2023/10/26 01:45:58;;;;;;;236.55;66.93;;;9.50;99.90;;;;;;4940309;28;20530;-78
2023/10/26 01:48:24;;;;;;;306.35;69.85;;;9.50;99.90;;;;;;4928770;29;20090;-76
2023/10/26 01:50:49;;;;;;;351.42;74.13;;;8.90;99.90;;;;;;4931875;29;20047;-80
2023/10/26 01:53:15;;;;;;;618.85;86.90;;;8.80;99.90;;;;;;4947786;28;20047;-76
2023/10/26 01:55:41;;;;;;;577.05;84.90;;;8.70;99.90;;;;;;4948906;28;20572;-75
2023/10/26 01:58:07;;;;;;;346.88;67.28;;;9.60;99.90;;;;;;4924499;29;20138;-79
2023/10/26 02:00:33;;;;;;;489.27;79.72;;;8.50;99.90;;;;;;4947109;28;20488;-73
2023/10/26 02:02:58;;;;;;;444.52;71.78;;;9.00;99.90;;;;;;4928755;29;20066;-76
2023/10/26 02:05:24;;;;;;;525.08;77.53;;;9.30;99.90;;;;;;4931300;29;20130;-78
2023/10/26 02:07:52;;;;;;;659.60;81.63;;;8.30;99.90;;;;;;4933398;29;20649;-77
2023/10/26 02:10:23;;;;;;;354.05;67.40;;;8.30;99.90;;;;;;4944290;28;20750;-75
2023/10/26 02:12:52;;;;;;;330.23;65.30;;;8.20;99.90;;;;;;4937366;29;20146;-78
2023/10/26 02:15:17;;;;;;;527.85;80.63;;;8.20;99.90;;;;;;4944329;28;20051;-73
2023/10/26 02:17:43;;;;;;;433.50;70.22;;;9.30;99.90;;;;;;4941067;29;20062;-77
2023/10/26 02:20:12;;;;;;;420.45;73.10;;;8.70;99.90;;;;;;4938155;29;20154;-74
2023/10/26 02:22:37;;;;;;;497.52;76.97;;;8.30;99.90;;;;;;4941635;28;20058;-77
2023/10/26 02:25:04;;;;;;;435.58;72.80;;;9.20;99.90;;;;;;4940345;28;20050;-74
2023/10/26 02:27:31;;;;;;;523.72;78.88;;;8.30;99.90;;;;;;4941585;29;20086;-75
2023/10/26 02:29:57;;;;;;;472.80;75.30;;;8.90;99.90;;;;;;4934867;29;20654;-76
2023/10/26 02:32:22;;;;;;;497.02;76.03;;;8.80;99.90;;;;;;4935222;29;20058;-76
2023/10/26 02:34:48;;;;;;;444.20;72.35;;;8.30;99.90;;;;;;4943115;28;20135;-76
2023/10/26 02:37:14;;;;;;;384.75;68.85;;;8.30;99.90;;;;;;4939155;29;20086;-75
2023/10/26 02:39:40;;;;;;;438.55;70.32;;;8.90;99.90;;;;;;4941163;29;20138;-73
2023/10/26 02:42:06;;;;;;;319.00;63.35;;;9.30;99.90;;;;;;4969647;28;20155;-78
2023/10/26 02:44:31;;;;;;;525.67;74.13;;;8.30;99.90;;;;;;4938062;29;20090;-76
2023/10/26 02:46:57;;;;;;;328.17;65.32;;;8.90;99.90;;;;;;4936396;29;20416;-74
2023/10/26 02:49:22;;;;;;;437.75;72.97;;;8.30;99.90;;;;;;4939917;28;20046;-77
2023/10/26 02:51:48;;;;;;;452.77;74.53;;;8.30;99.90;;;;;;4935489;29;20424;-75
2023/10/26 02:54:17;;;;;;;530.95;79.65;;;8.80;99.90;;;;;;4943372;28;20047;-75
2023/10/26 02:56:42;;;;;;;487.20;76.38;;;10.30;99.90;;;;;;4941021;29;20567;-75
2023/10/26 02:59:08;;;;;;;419.88;68.75;;;9.10;99.90;;;;;;4965176;28;20047;-73
2023/10/26 03:01:34;;;;;;;562.67;75.63;;;8.40;99.90;;;;;;4939583;28;20562;-76
2023/10/26 03:04:03;;;;;;;460.85;75.80;;;8.50;99.90;;;;;;4932013;28;20051;-76
2023/10/26 03:06:35;;;;;;;375.20;68.97;;;8.50;99.90;;;;;;4937287;29;20051;-73
2023/10/26 03:09:01;;;;;;;557.30;79.50;;;8.50;99.90;;;;;;4943350;28;20061;-75
2023/10/26 03:11:26;;;;;;;366.05;67.85;;;9.40;99.90;;;;;;4933465;29;20051;-73
2023/10/26 03:13:52;;;;;;;310.67;65.55;;;8.70;99.90;;;;;;4935437;29;20669;-77
2023/10/26 03:16:19;;;;;;;430.92;72.55;;;8.70;99.90;;;;;;4931635;29;20464;-74
2023/10/26 03:18:44;;;;;;;335.63;67.70;;;8.60;99.90;;;;;;4943950;28;20055;-78
2023/10/26 03:21:10;;;;;;;414.67;72.43;;;9.50;99.90;;;;;;4928205;28;20178;-78
2023/10/26 03:23:36;;;;;;;612.30;74.72;;;8.70;99.90;;;;;;4930139;29;20516;-75
2023/10/26 03:26:02;;;;;;;570.05;78.28;;;8.90;99.90;;;;;;4943312;28;20153;-74
2023/10/26 03:28:28;;;;;;;399.50;71.35;;;8.60;99.90;;;;;;4929918;29;20058;-75
2023/10/26 03:30:53;;;;;;;652.85;86.20;;;8.60;99.90;;;;;;4936237;29;20039;-76
2023/10/26 03:33:19;;;;;;;486.38;76.85;;;8.60;99.90;;;;;;4938101;29;20181;-76
2023/10/26 03:35:47;;;;;;;560.70;78.32;;;8.60;99.90;;;;;;4933061;29;20728;-75
2023/10/26 03:38:13;;;;;;;510.80;77.13;;;8.60;99.90;;;;;;4966226;28;20142;-77
2023/10/26 03:40:38;;;;;;;357.13;65.40;;;8.70;99.90;;;;;;4933912;29;20059;-78
2023/10/26 03:43:04;;;;;;;462.02;76.28;;;8.60;99.90;;;;;;4930905;29;20709;-79
2023/10/26 03:45:31;;;;;;;525.35;77.05;;;8.60;99.90;;;;;;4934557;29;20128;-74
2023/10/26 03:47:57;;;;;;;347.73;67.63;;;8.70;99.90;;;;;;4932145;29;20062;-76
2023/10/26 03:50:23;;;;;;;421.20;72.68;;;8.60;99.90;;;;;;4933006;28;20058;-77
2023/10/26 03:52:48;;;;;;;524.40;77.28;;;8.70;99.90;;;;;;4940447;29;20051;-76
2023/10/26 03:55:14;;;;;;;538.35;75.43;;;9.30;99.90;;;;;;4938030;29;20055;-77
2023/10/26 03:57:40;;;;;;;477.13;69.65;;;8.70;99.90;;;;;;4964386;28;20062;-76
2023/10/26 04:00:06;;;;;;;432.23;70.78;;;7.60;99.90;;;;;;4938290;29;20091;-77
2023/10/26 04:02:34;;;;;;;582.10;75.13;;;11.00;99.90;;;;;;4956038;28;20065;-77
2023/10/26 04:04:59;;;;;;;419.17;70.20;;;8.60;99.90;;;;;;4971995;28;20134;-77
2023/10/26 04:07:27;;;;;;;553.70;75.78;;;8.70;99.90;;;;;;4956023;28;20056;-76
2023/10/26 04:09:52;;;;;;;410.40;69.68;;;8.60;99.90;;;;;;4954563;28;20050;-78
2023/10/26 04:12:18;;;;;;;460.27;74.35;;;8.60;99.90;;;;;;4958651;28;20108;-78
2023/10/26 04:14:44;;;;;;;372.05;65.80;;;9.10;99.90;;;;;;4954334;28;20061;-75
2023/10/26 04:17:12;;;;;;;439.35;67.28;;;8.70;99.90;;;;;;4962620;28;20050;-76
2023/10/26 04:19:40;;;;;;;567.30;74.05;;;8.70;99.90;;;;;;4941999;28;20050;-77
2023/10/26 04:22:05;;;;;;;395.85;70.00;;;8.70;99.90;;;;;;4972401;28;20404;-77
2023/10/26 04:24:32;;;;;;;439.25;69.78;;;9.80;99.90;;;;;;4963695;28;20062;-76
2023/10/26 04:26:59;;;;;;;440.92;72.90;;;8.70;99.90;;;;;;4963895;28;20062;-75
2023/10/26 04:29:25;;;;;;;398.95;72.85;;;9.10;99.90;;;;;;4962407;28;20519;-74
2023/10/26 04:31:51;;;;;;;381.38;65.80;;;8.70;99.90;;;;;;4961070;28;20502;-75
2023/10/26 04:34:16;;;;;;;469.92;73.28;;;8.80;99.90;;;;;;4955815;28;20050;-76
2023/10/26 04:36:42;;;;;;;469.05;71.88;;;8.70;99.90;;;;;;4971858;28;20677;-74
2023/10/26 04:39:11;;;;;;;474.55;72.68;;;8.70;99.90;;;;;;4954327;28;20046;-77
2023/10/26 04:41:36;;;;;;;501.60;74.60;;;8.70;99.90;;;;;;4961877;28;20113;-78
2023/10/26 04:44:05;;;;;;;536.67;74.32;;;9.30;99.90;;;;;;4952661;28;20504;-78
2023/10/26 04:46:31;;;;;;;405.05;69.60;;;8.70;99.90;;;;;;4956182;28;20054;-78
2023/10/26 04:48:57;;;;;;;413.30;67.35;;;9.10;99.90;;;;;;4950114;28;20116;-75
2023/10/26 04:51:22;;;;;;;511.15;71.70;;;8.70;99.90;;;;;;4961915;28;20058;-77
2023/10/26 04:53:49;;;;;;;403.25;68.18;;;9.20;99.90;;;;;;4962204;28;20042;-75
2023/10/26 04:56:15;;;;;;;496.42;71.90;;;11.00;99.90;;;;;;4969353;28;20093;-77
2023/10/26 04:58:43;;;;;;;523.13;76.88;;;8.70;99.90;;;;;;4960858;28;20160;-75
2023/10/26 05:01:09;;;;;;;588.58;76.75;;;8.70;99.90;;;;;;4949514;28;20777;-75
2023/10/26 05:03:35;;;;;;;395.70;64.90;;;9.10;99.90;;;;;;4934570;28;20063;-76
2023/10/26 05:06:00;;;;;;;556.83;76.35;;;8.70;99.90;;;;;;4933702;29;20054;-76
2023/10/26 05:08:26;;;;;;;608.30;75.88;;;5.60;99.90;;;;;;4954025;28;20061;-77
2023/10/26 05:10:54;;;;;;;578.60;74.55;;;8.70;99.90;;;;;;4933191;29;20121;-76
2023/10/26 05:13:21;;;;;;;432.40;67.90;;;8.60;99.90;;;;;;4938500;29;20080;-77
2023/10/26 05:15:47;;;;;;;497.25;69.93;;;8.70;99.90;;;;;;4938264;29;20575;-75
2023/10/26 05:18:13;;;;;;;463.15;68.07;;;8.60;99.90;;;;;;4926964;29;20115;-76
2023/10/26 05:20:39;;;;;;;529.22;69.55;;;8.60;99.90;;;;;;4971285;28;20063;-79
2023/10/26 05:23:05;;;;;;;600.45;72.53;;;8.50;99.90;;;;;;4941685;28;20511;-76
2023/10/26 05:25:31;;;;;;;640.33;75.13;;;8.70;99.90;;;;;;4938850;28;20551;-76
2023/10/26 05:27:57;;;;;;;558.22;73.63;;;8.60;99.90;;;;;;4940156;28;20531;-75
2023/10/26 05:30:23;;;;;;;434.52;65.60;;;8.50;99.90;;;;;;4933401;29;20070;-78
2023/10/26 05:32:49;;;;;;;574.30;69.80;;;8.80;99.90;;;;;;4931625;29;20098;-75
2023/10/26 05:35:15;;;;;;;355.30;62.10;;;9.70;99.90;;;;;;4927432;29;20063;-75
2023/10/26 05:37:43;;;;;;;410.33;64.22;;;8.40;99.90;;;;;;4951423;28;20636;-78
2023/10/26 05:40:09;;;;;;;535.83;69.50;;;8.40;99.90;;;;;;4939588;28;20081;-76
2023/10/26 05:42:35;;;;;;;479.77;68.88;;;8.40;99.90;;;;;;4939311;28;20126;-79
2023/10/26 05:45:01;;;;;;;523.78;68.25;;;8.40;99.90;;;;;;4941057;28;20065;-74
2023/10/26 05:47:26;;;;;;;535.03;70.95;;;9.10;99.90;;;;;;4954890;28;20051;-76
2023/10/26 05:49:54;;;;;;;611.67;71.47;;;8.40;99.90;;;;;;4972988;28;20051;-77
2023/10/26 05:52:20;;;;;;;546.78;73.03;;;9.20;99.90;;;;;;4936659;29;20048;-76
2023/10/26 05:54:46;;;;;;;429.70;63.95;;;8.30;99.90;;;;;;4940021;28;20058;-76
2023/10/26 05:57:12;;;;;;;507.35;66.50;;;8.30;99.90;;;;;;4938935;28;20050;-73
2023/10/26 05:59:38;;;;;;;512.55;68.60;;;8.30;99.90;;;;;;4936306;29;20200;-77
2023/10/26 06:02:04;;;;;;;478.15;64.90;;;8.20;99.90;;;;;;4936810;28;20088;-77
2023/10/26 06:04:30;;;;;;;545.58;70.47;;;8.40;99.90;;;;;;4936971;28;20504;-78
2023/10/26 06:06:55;;;;;;;472.88;64.95;;;8.20;99.90;;;;;;4949185;28;20047;-77
2023/10/26 06:09:21;;;;;;;627.30;75.25;;;9.40;99.90;;;;;;4935258;28;20125;-75
2023/10/26 06:11:47;;;;;;;602.33;73.07;;;8.10;99.90;;;;;;4932103;28;20184;-75
2023/10/26 06:14:12;;;;;;;556.40;68.20;;;8.10;99.90;;;;;;4936934;28;20065;-79
2023/10/26 06:16:38;;;;;;;518.75;69.00;;;8.00;99.90;;;;;;4946125;28;20135;-73
2023/10/26 06:19:04;;;;;;;631.13;74.97;;;8.30;99.90;;;;;;4926649;28;20146;-76
2023/10/26 06:21:30;;;;;;;531.00;68.13;;;8.00;99.90;;;;;;4960585;28;20062;-76
2023/10/26 06:23:55;;;;;;;626.67;72.97;;;10.90;99.90;;;;;;4943488;28;20130;-75
2023/10/26 06:26:21;;;;;;;442.73;63.67;;;8.20;99.90;;;;;;4943231;28;20050;-78
2023/10/26 06:28:47;;;;;;;421.85;60.65;;;9.70;99.90;;;;;;4941839;28;20071;-74
2023/10/26 06:31:16;;;;;;;670.85;72.15;;;7.80;99.90;;;;;;4950834;28;20134;-75
2023/10/26 06:33:43;;;;;;;595.65;64.88;;;10.50;99.90;;;;;;4948178;28;20039;-74
2023/10/26 06:36:10;;;;;;;560.50;64.05;;;7.70;99.90;;;;;;4932312;28;20094;-78
2023/10/26 06:38:37;;;;;;;683.20;72.03;;;7.70;99.90;;;;;;4942635;28;20076;-76
2023/10/26 06:41:03;;;;;;;594.83;65.13;;;9.00;99.90;;;;;;4918713;28;20051;-76
2023/10/26 06:43:29;;;;;;;416.58;56.53;;;7.60;99.90;;;;;;4943055;28;20122;-75
2023/10/26 06:45:55;;;;;;;286.88;54.60;;;7.50;99.90;;;;;;4943013;28;20047;-74
2023/10/26 06:48:21;;;;;;;418.73;60.72;;;7.90;99.90;;;;;;4938519;28;20055;-76
2023/10/26 06:50:47;;;;;;;481.27;62.33;;;8.40;99.90;;;;;;4934107;29;20055;-77
2023/10/26 06:53:13;;;;;;;573.17;63.53;;;7.50;99.90;;;;;;4937825;28;20142;-76
2023/10/26 06:55:39;;;;;;;521.03;60.22;;;7.70;99.90;;;;;;4938566;28;20121;-75
2023/10/26 06:58:04;;;;;;;457.95;59.08;;;8.50;99.90;;;;;;4940094;28;20469;-77
2023/10/26 07:00:31;;;;;;;407.42;56.28;;;7.70;99.90;;;;;;4956641;28;20271;-77
2023/10/26 07:02:56;;;;;;;292.50;57.70;;;7.90;99.90;;;;;;4938950;29;20067;-76
2023/10/26 07:05:22;;;;;;;314.02;60.85;;;7.80;99.90;;;;;;4940262;28;20062;-78
2023/10/26 07:07:48;;;;;;;297.10;61.25;;;8.00;99.90;;;;;;4935124;29;20059;-77
2023/10/26 07:10:18;;;;;;;379.90;65.05;;;8.10;99.90;;;;;;4942726;28;20073;-74
2023/10/26 07:12:45;;;;;;;377.42;68.57;;;8.20;99.90;;;;;;4938183;29;20081;-79
2023/10/26 07:15:11;;;;;;;316.58;62.60;;;8.30;99.90;;;;;;4937281;28;20050;-76
2023/10/26 07:17:38;;;;;;;304.05;65.72;;;8.50;99.90;;;;;;4922675;29;20146;-77
2023/10/26 07:20:05;;;;;;;390.80;71.43;;;9.30;99.90;;;;;;4929164;29;20051;-76
2023/10/26 07:22:34;;;;;;;314.90;66.70;;;8.50;99.90;;;;;;4932307;29;20050;-76
2023/10/26 07:25:01;;;;;;;319.92;66.72;;;8.80;99.90;;;;;;4937074;28;20433;-77
2023/10/26 07:27:28;;;;;;;259.88;67.20;;;8.70;99.90;;;;;;4933184;29;20057;-79
2023/10/26 07:29:53;;;;;;;222.93;61.22;;;6.20;99.90;;;;;;4939674;29;20161;-76
2023/10/26 07:32:20;;;;;;;326.17;66.05;;;9.20;99.90;;;;;;4938606;29;20638;-76
2023/10/26 07:34:46;;;;;;;223.35;59.97;;;8.90;99.90;;;;;;4929366;29;20051;-78
2023/10/26 07:37:11;;;;;;;230.20;62.30;;;9.10;99.90;;;;;;4935854;29;20075;-78
2023/10/26 07:39:37;;;;;;;210.18;61.42;;;9.70;99.90;;;;;;4936781;29;20050;-80
2023/10/26 07:42:04;;;;;;;328.20;66.43;;;9.20;99.90;;;;;;4924677;29;20062;-79
2023/10/26 07:44:33;;;;;;;247.27;62.47;;;9.30;99.90;;;;;;4939438;28;20055;-77
2023/10/26 07:46:59;;;;;;;254.32;63.58;;;9.40;99.90;;;;;;4939206;29;20062;-76
2023/10/26 07:49:25;;;;;;;200.93;59.55;;;9.40;99.90;;;;;;4934770;29;20676;-79
2023/10/26 07:51:51;;;;;;;236.38;63.28;;;9.40;99.90;;;;;;4934543;29;20055;-78
2023/10/26 07:54:20;;;;;;;193.00;58.88;;;9.40;99.90;;;;;;4933280;29;20043;-77
2023/10/26 07:56:45;;;;;;;201.00;59.15;;;9.40;99.90;;;;;;4949136;28;20085;-76
2023/10/26 07:59:11;;;;;;;182.60;56.92;;;9.40;99.90;;;;;;4929896;29;20055;-80
2023/10/26 08:01:37;;;;;;;172.23;57.53;;;9.40;99.90;;;;;;4933715;28;20081;-77
2023/10/26 08:04:03;;;;;;;204.48;58.90;;;9.30;99.90;;;;;;4942114;28;20059;-78
2023/10/26 08:06:28;;;;;;;205.30;58.53;;;9.30;99.90;;;;;;4937243;28;20101;-77
2023/10/26 08:08:54;;;;;;;192.60;58.03;;;9.40;99.90;;;;;;4942293;28;20082;-80
2023/10/26 08:11:20;;;;;;;305.00;62.72;;;9.40;99.90;;;;;;4919466;29;20531;-76
2023/10/26 08:13:46;;;;;;;208.13;55.80;;;9.40;99.90;;;;;;4938896;28;20453;-78
2023/10/26 08:16:12;;;;;;;184.35;56.03;;;9.50;99.90;;;;;;4939787;29;20448;-79
2023/10/26 08:18:38;;;;;;;208.73;56.03;;;9.50;99.90;;;;;;4939493;29;20071;-74
2023/10/26 08:21:05;;;;;;;178.38;53.00;;;9.50;99.90;;;;;;4942449;28;20055;-80
2023/10/26 08:23:33;;;;;;;148.23;50.45;;;9.50;99.90;;;;;;4925975;29;20524;-77
2023/10/26 08:26:09;;;;;;;174.02;51.03;;;9.60;99.90;;;;;;4930990;29;20047;-81
2023/10/26 08:28:36;;;;;;;186.82;53.42;;;9.50;99.90;;;;;;4950564;28;20055;-77
2023/10/26 08:31:02;;;;;;;161.35;50.72;;;9.50;99.90;;;;;;4936455;28;20059;-77
2023/10/26 08:33:33;;;;;;;162.68;50.17;;;9.60;99.90;;;;;;4965459;28;20476;-77
2023/10/26 08:35:59;;;;;;;114.63;43.70;;;9.60;99.90;;;;;;4962246;28;20055;-79
2023/10/26 08:38:26;;;;;;;128.48;47.05;;;9.60;99.90;;;;;;4912331;29;20053;-75
2023/10/26 08:40:54;;;;;;;139.50;48.40;;;9.50;99.90;;;;;;4948222;28;20146;-77
2023/10/26 08:43:23;;;;;;;183.32;51.35;;;9.50;99.90;;;;;;4913342;28;20046;-78
2023/10/26 08:45:52;;;;;;;132.00;46.38;;;9.50;99.90;;;;;;4922616;28;20986;-81
2023/10/26 08:48:19;;;;;;;127.13;46.53;;;9.60;99.90;;;;;;4937684;28;20055;-79
2023/10/26 08:50:46;;;;;;;100.82;43.08;;;9.60;99.90;;;;;;4913340;28;20142;-80
2023/10/26 08:53:13;;;;;;;110.50;42.65;;;9.70;99.90;;;;;;4947129;28;20060;-76
2023/10/26 08:55:52;;;;;;;138.73;47.05;;;9.90;99.90;;;;;;4927207;28;20050;-79
2023/10/26 08:58:22;;;;;;;117.15;44.20;;;9.70;99.90;;;;;;4917087;28;20066;-77
2023/10/26 09:00:51;;;;;;;94.07;40.75;;;9.80;99.90;;;;;;4942437;28;20054;-77
2023/10/26 09:03:26;;;;;;;106.53;43.22;;;9.80;99.90;;;;;;4940673;28;20085;-78
2023/10/26 09:05:56;;;;;;;101.07;42.08;;;10.60;99.90;;;;;;4977985;28;20060;-82
2023/10/26 09:08:23;;;;;;;86.78;40.67;;;9.80;99.90;;;;;;4964560;28;20051;-77
2023/10/26 09:10:50;;;;;;;130.80;45.33;;;9.80;99.90;;;;;;4970428;28;20051;-80
2023/10/26 09:13:23;;;;;;;99.05;42.20;;;9.80;99.90;;;;;;4936369;28;20050;-81
2023/10/26 09:15:50;;;;;;;134.32;44.25;;;9.80;99.90;;;;;;4951834;28;20058;-77
2023/10/26 09:18:17;;;;;;;89.65;41.33;;;9.80;99.90;;;;;;4955738;28;20058;-80
2023/10/26 09:21:00;;;;;;;99.60;43.25;;;9.90;99.90;;;;;;4953229;28;20499;-77
2023/10/26 09:23:27;;;;;;;102.78;42.70;;;10.00;99.90;;;;;;4938002;28;20570;-76
2023/10/26 09:26:13;;;;;;;81.95;40.65;;;10.00;99.90;;;;;;4961565;28;20132;-76
2023/10/26 09:28:56;;;;;;;81.68;40.58;;;10.10;99.90;;;;;;4967501;28;20069;-80
2023/10/26 09:31:24;;;;;;;69.97;39.47;;;10.10;99.90;;;;;;4965334;28;20054;-78
2023/10/26 09:33:53;;;;;;;77.68;39.60;;;10.10;99.90;;;;;;4969259;28;20074;-80
2023/10/26 09:36:29;;;;;;;76.47;40.78;;;10.20;99.90;;;;;;4927147;28;20113;-80
2023/10/26 09:38:57;;;;;;;76.47;39.80;;;10.80;99.90;;;;;;4929925;28;20080;-79
2023/10/26 09:41:24;;;;;;;64.72;38.88;;;10.30;99.90;;;;;;4906418;28;20767;-77
2023/10/26 09:43:50;;;;;;;68.68;39.92;;;10.40;99.90;;;;;;4915971;28;20110;-82
2023/10/26 09:46:20;;;;;;;68.35;39.75;;;10.50;99.90;;;;;;4924621;28;20113;-78
2023/10/26 09:48:49;;;;;;;60.55;36.08;;;12.60;99.90;;;;;;4915264;28;20531;-82
2023/10/26 09:51:22;;;;;;;65.53;37.88;;;10.60;99.90;;;;;;4917626;28;20074;-79
2023/10/26 09:53:57;;;;;;;66.40;38.60;;;10.70;99.90;;;;;;4917099;28;20059;-82
2023/10/26 09:56:27;;;;;;;64.13;37.42;;;10.80;99.90;;;;;;4925785;28;20059;-79
2023/10/26 09:58:54;;;;;;;71.25;38.20;;;13.50;99.90;;;;;;4935982;28;20070;-78
2023/10/26 10:01:33;;;;;;;58.90;37.05;;;10.80;99.90;;;;;;4876783;28;20556;-81
2023/10/26 10:04:03;;;;;;;61.08;36.88;;;10.90;99.90;;;;;;4918615;28;20117;-82
2023/10/26 10:06:50;;;;;;;62.58;36.42;;;10.80;99.90;;;;;;4907156;28;20136;-83
2023/10/26 10:09:55;;;;;;;53.45;34.65;;;10.90;99.90;;;;;;4925647;28;20047;-80
2023/10/26 10:12:27;;;;;;;53.03;32.92;;;10.90;99.90;;;;;;4565937;28;10000281;-82
2023/10/26 10:15:09;;;;;;;46.40;33.08;;;13.50;99.90;;;;;;4927068;28;21180;-81
2023/10/26 10:17:44;;;;;;;50.33;33.45;;;10.70;99.90;;;;;;4934585;28;20551;-77
2023/10/26 10:20:22;;;;;;;57.67;33.75;;;10.70;99.90;;;;;;4914142;28;20058;-84
2023/10/26 10:22:53;;;;;;;54.10;34.58;;;10.60;99.90;;;;;;4925036;28;20078;-79
2023/10/26 10:25:19;;;;;;;50.53;34.22;;;10.60;99.90;;;;;;4929312;28;20063;-82
2023/10/26 10:27:48;;;;;;;48.58;32.20;;;10.70;99.90;;;;;;4926006;28;20073;-75
2023/10/26 10:30:14;;;;;;;61.72;36.00;;;10.70;99.90;;;;;;4936564;28;20057;-80
2023/10/26 10:32:43;;;;;;;53.67;33.67;;;10.70;99.90;;;;;;4935208;28;20058;-81
2023/10/26 10:35:22;;;;;;;50.78;32.85;;;10.70;99.90;;;;;;4958366;28;20051;-82
2023/10/26 10:38:17;;;;;;;54.85;34.53;;;10.60;99.90;;;;;;4922355;28;20058;-78
2023/10/26 10:41:04;;;;;;;64.10;37.17;;;10.70;99.90;;;;;;4977831;28;20423;-75
2023/10/26 10:43:58;;;;;;;53.10;34.20;;;10.90;99.90;;;;;;4935596;28;20180;-76
2023/10/26 10:46:26;;;;;;;48.72;33.53;;;11.00;99.90;;;;;;4941545;28;20063;-77
2023/10/26 10:48:59;;;;;;;48.80;33.88;;;11.00;99.90;;;;;;4958550;28;20065;-76
2023/10/26 10:51:39;;;;;;;51.45;34.20;;;11.00;99.90;;;;;;4955322;28;20137;-80
2023/10/26 10:54:27;;;;;;;54.03;33.88;;;10.90;99.90;;;;;;4938158;28;20071;-78
2023/10/26 10:57:04;;;;;;;49.40;34.70;;;11.00;99.90;;;;;;4953558;28;20221;-79
2023/10/26 10:59:44;;;;;;;42.72;31.75;;;11.00;99.90;;;;;;4993551;28;20084;-83
2023/10/26 11:02:16;;;;;;;48.17;33.83;;;11.40;99.90;;;;;;4966308;28;20073;-76
2023/10/26 11:04:52;;;;;;;;;;;11.00;99.90;;;;;;4940432;28;20133;-81
2023/10/26 11:07:28;;;;;;;47.22;32.75;;;11.00;99.90;;;;;;4903291;28;19930;-77
2023/10/26 11:09:58;;;;;;;40.67;29.42;;;11.00;99.90;;;;;;4931474;28;20671;-81
2023/10/26 11:12:25;;;;;;;39.13;29.25;;;10.90;99.90;;;;;;4951340;28;20070;-81
2023/10/26 11:14:53;;;;;;;38.13;28.55;;;10.80;99.90;;;;;;4905386;28;20058;-79
2023/10/26 11:20:41;;;;;;;47.83;32.47;;;10.90;99.90;;;;;;4920254;28;20093;-82
2023/10/26 11:23:09;;;;;;;50.58;34.63;;;11.10;99.90;;;;;;4927351;28;20691;-81
2023/10/26 11:25:36;;;;;;;55.95;35.95;;;11.30;99.90;;;;;;4923314;28;20125;-80
2023/10/26 11:28:03;;;;;;;56.47;34.45;;;11.50;99.90;;;;;;4895353;28;20059;-82
2023/10/26 11:30:51;;;;;;;56.97;36.88;;;11.80;99.90;;;;;;4928873;28;22381;-78
2023/10/26 11:33:53;;;;;;;47.97;33.10;;;12.00;99.90;;;;;;4925696;28;21124;-82
2023/10/26 11:36:19;;;;;;;42.03;30.88;;;12.00;99.90;;;;;;4883021;28;20071;-78
2023/10/26 11:38:49;;;;;;;38.65;30.00;;;12.00;99.90;;;;;;4920878;28;20054;-83
2023/10/26 11:41:21;;;;;;;40.28;29.95;;;11.80;99.90;;;;;;4940404;28;20668;-76
2023/10/26 11:43:48;;;;;;;42.40;30.45;;;11.80;99.90;;;;;;4941235;28;20054;-79
2023/10/26 11:46:13;;;;;;;48.60;30.88;;;11.70;99.90;;;;;;4897820;28;20233;-79
2023/10/26 11:48:39;;;;;;;40.03;31.02;;;11.80;99.90;;;;;;4894581;28;20824;-76
2023/10/26 11:51:07;;;;;;;39.53;30.15;;;11.80;99.90;;;;;;4926840;28;20055;-80
2023/10/26 11:53:35;;;;;;;43.05;31.08;;;10.80;99.90;;;;;;4910540;28;20058;-79
2023/10/26 11:56:01;;;;;;;45.65;32.92;;;11.70;99.90;;;;;;4929348;28;20062;-81
2023/10/26 11:58:27;;;;;;;42.72;29.88;;;11.60;99.90;;;;;;4925756;28;20153;-83
2023/10/26 12:00:53;;;;;;;42.67;31.52;;;11.70;99.90;;;;;;4930133;28;20416;-81
2023/10/26 12:03:22;;;;;;;41.25;30.55;;;11.70;99.90;;;;;;4903159;28;21770;-81
2023/10/26 12:05:53;;;;;;;38.47;29.13;;;11.60;99.90;;;;;;4898704;28;20158;-82
2023/10/26 12:08:18;;;;;;;41.50;30.80;;;11.50;99.90;;;;;;4865399;28;20548;-81
2023/10/26 12:10:44;;;;;;;42.60;30.05;;;11.40;99.90;;;;;;4900183;28;20110;-81
2023/10/26 12:13:19;;;;;;;39.20;28.85;;;11.40;99.90;;;;;;4885193;28;20059;-76
2023/10/26 12:15:45;;;;;;;41.63;30.15;;;13.60;99.90;;;;;;4897407;28;20066;-81
2023/10/26 12:18:11;;;;;;;42.55;30.33;;;11.50;99.90;;;;;;4899027;28;20054;-81
2023/10/26 12:20:38;;;;;;;38.30;27.35;;;11.80;99.90;;;;;;4889408;28;20055;-79
2023/10/26 12:23:04;;;;;;;42.08;29.05;;;10.60;99.90;;;;;;4897869;28;20062;-79
2023/10/26 12:25:29;;;;;;;40.10;29.88;;;11.50;99.90;;;;;;4906920;28;20097;-76
2023/10/26 12:27:56;;;;;;;40.75;29.58;;;11.50;99.90;;;;;;4886106;28;20055;-78
2023/10/26 12:30:22;;;;;;;36.58;27.95;;;11.60;99.90;;;;;;4896029;28;20051;-79
2023/10/26 12:32:48;;;;;;;39.83;27.77;;;11.80;99.90;;;;;;4904656;28;20234;-81
2023/10/26 12:35:20;;;;;;;34.95;27.73;;;11.90;99.90;;;;;;4881319;29;21391;-78